Time;durP1;ratioP1;P1;durP2;ratioP2;P2;SDS_P1;SDS_P2;PMS_P1;PMS_P2;Temp;Humidity;BMP_temperature;BMP_pressure;BME280_temperature;BME280_humidity;BME280_pressure;Samples;Min_cycle;Max_cycle;Signal;HPM_P1;HPM_P2
2024/03/15 00:00:47;;;;;;;15.53;9.93;;;9.70;99.90;;;;;;5008954;28;20415;-63
2024/03/15 00:03:13;;;;;;;16.97;10.47;;;9.60;99.90;;;;;;5009198;28;20437;-63
2024/03/15 00:05:39;;;;;;;16.40;11.27;;;9.60;99.90;;;;;;5007002;28;20466;-63
2024/03/15 00:08:06;;;;;;;17.60;12.30;;;9.60;99.90;;;;;;5007467;28;20481;-63
2024/03/15 00:10:32;;;;;;;14.13;11.13;;;9.50;99.90;;;;;;5008086;28;20815;-62
2024/03/15 00:13:05;;;;;;;14.70;11.00;;;9.50;99.90;;;;;;5008639;28;20432;-63
2024/03/15 00:15:31;;;;;;;14.33;12.27;;;9.50;99.90;;;;;;5008576;28;20446;-63
2024/03/15 00:17:58;;;;;;;19.23;12.27;;;9.50;99.90;;;;;;5008296;28;20427;-63
2024/03/15 00:20:26;;;;;;;15.50;10.70;;;9.50;99.90;;;;;;5008745;28;20180;-63
2024/03/15 00:22:55;;;;;;;14.47;11.07;;;9.50;99.90;;;;;;5008280;28;20423;-63
2024/03/15 00:25:25;;;;;;;16.70;11.70;;;9.50;99.90;;;;;;5007196;28;20439;-64
2024/03/15 00:27:52;;;;;;;16.00;11.80;;;9.40;99.90;;;;;;5008555;28;20506;-64
2024/03/15 00:30:18;;;;;;;14.53;12.93;;;9.40;99.90;;;;;;5009167;28;20418;-64
2024/03/15 00:32:44;;;;;;;17.63;11.97;;;9.40;99.90;;;;;;5007697;28;21006;-63
2024/03/15 00:35:13;;;;;;;14.60;11.40;;;9.40;99.90;;;;;;5008957;28;20474;-64
2024/03/15 00:37:39;;;;;;;15.33;10.80;;;9.40;99.90;;;;;;5007402;28;20203;-64
2024/03/15 00:40:08;;;;;;;17.03;12.00;;;9.40;99.90;;;;;;5005884;28;20876;-62
2024/03/15 00:42:34;;;;;;;20.50;13.43;;;9.40;99.90;;;;;;5007220;28;20203;-64
2024/03/15 00:44:59;;;;;;;15.70;11.57;;;9.40;99.90;;;;;;5008156;28;21005;-63
2024/03/15 00:47:25;;;;;;;18.60;11.90;;;9.40;99.90;;;;;;5005851;28;20807;-63
2024/03/15 00:49:53;;;;;;;16.83;11.33;;;9.40;99.90;;;;;;5009277;28;20199;-63
2024/03/15 00:52:20;;;;;;;17.40;12.33;;;9.40;99.90;;;;;;5008836;28;20459;-63
2024/03/15 00:54:47;;;;;;;17.90;12.20;;;9.40;99.90;;;;;;5007023;28;20876;-63
2024/03/15 00:57:16;;;;;;;17.23;12.07;;;9.40;99.90;;;;;;5007634;28;20506;-65
2024/03/15 00:59:42;;;;;;;16.17;13.17;;;9.40;99.90;;;;;;5007745;28;20411;-62
2024/03/15 01:02:08;;;;;;;16.97;11.93;;;9.40;99.90;;;;;;5007992;28;20812;-62
2024/03/15 01:04:34;;;;;;;16.40;12.13;;;9.40;99.90;;;;;;5007715;28;20438;-62
2024/03/15 01:07:01;;;;;;;17.13;11.83;;;9.40;99.90;;;;;;5009850;28;20981;-63
2024/03/15 01:09:29;;;;;;;16.10;12.03;;;9.40;99.90;;;;;;4991148;28;20470;-63
2024/03/15 01:11:55;;;;;;;16.70;12.10;;;9.40;99.90;;;;;;5009424;28;21041;-62
2024/03/15 01:14:24;;;;;;;15.10;11.63;;;9.40;99.90;;;;;;5010479;28;20943;-68
2024/03/15 01:16:53;;;;;;;17.77;13.00;;;9.40;99.90;;;;;;5012031;28;20529;-66
2024/03/15 01:19:19;;;;;;;85.60;53.27;;;9.40;99.90;;;;;;5011248;28;20496;-60
2024/03/15 01:21:50;;;;;;;46.80;32.57;;;9.50;99.90;;;;;;5013943;28;20423;-61
2024/03/15 01:24:18;;;;;;;34.07;23.33;;;9.50;99.90;;;;;;5005036;28;20466;-63
2024/03/15 01:26:44;;;;;;;25.87;19.93;;;9.60;99.90;;;;;;5010226;28;20430;-62
2024/03/15 01:29:10;;;;;;;19.50;15.97;;;9.50;99.90;;;;;;5013623;28;20445;-64
2024/03/15 01:31:38;;;;;;;23.80;17.33;;;9.50;99.90;;;;;;5014853;28;20235;-61
2024/03/15 01:34:06;;;;;;;18.33;13.40;;;9.50;99.90;;;;;;5014942;28;20206;-63
2024/03/15 01:36:32;;;;;;;18.77;13.47;;;9.50;99.90;;;;;;5014256;28;20491;-63
2024/03/15 01:39:01;;;;;;;17.97;12.80;;;9.50;99.90;;;;;;5014962;28;20944;-62
2024/03/15 01:41:27;;;;;;;25.40;16.20;;;9.50;99.90;;;;;;5014634;28;20479;-60
2024/03/15 01:43:54;;;;;;;17.97;14.63;;;9.50;99.90;;;;;;5013815;28;20438;-63
2024/03/15 01:46:21;;;;;;;20.87;15.57;;;9.60;99.90;;;;;;5014453;28;20415;-63
2024/03/15 01:48:47;;;;;;;23.97;16.30;;;9.60;99.90;;;;;;5013912;28;20472;-63
2024/03/15 01:51:14;;;;;;;18.87;14.53;;;9.70;99.90;;;;;;5013958;28;20458;-63
2024/03/15 01:53:40;;;;;;;20.13;14.57;;;9.60;99.90;;;;;;5013550;28;20779;-63
2024/03/15 01:56:06;;;;;;;17.80;13.63;;;9.60;99.90;;;;;;5014115;28;20407;-62
2024/03/15 01:58:32;;;;;;;18.47;15.50;;;9.60;99.90;;;;;;5013897;28;20506;-61
2024/03/15 02:00:58;;;;;;;16.93;13.17;;;9.60;99.90;;;;;;5014446;28;20475;-63
2024/03/15 02:03:24;;;;;;;19.37;13.60;;;9.50;99.90;;;;;;5014711;28;20548;-63
2024/03/15 02:05:53;;;;;;;19.17;14.77;;;9.50;99.90;;;;;;5014052;28;20526;-61
2024/03/15 02:08:19;;;;;;;19.97;14.57;;;9.50;99.90;;;;;;5009774;28;20936;-63
2024/03/15 02:10:46;;;;;;;21.50;15.47;;;9.50;99.90;;;;;;5007442;28;20455;-63
2024/03/15 02:13:13;;;;;;;15.60;12.47;;;9.60;99.90;;;;;;5013427;28;20929;-62
2024/03/15 02:15:42;;;;;;;18.20;14.87;;;9.50;99.90;;;;;;5013341;28;20423;-63
2024/03/15 02:18:08;;;;;;;20.40;15.43;;;9.60;99.90;;;;;;5013160;28;20485;-61
2024/03/15 02:20:37;;;;;;;16.93;13.77;;;9.40;99.90;;;;;;5013330;28;20532;-61
2024/03/15 02:23:05;;;;;;;21.77;16.17;;;9.50;99.90;;;;;;5013158;28;20992;-62
2024/03/15 02:25:32;;;;;;;19.77;13.93;;;9.50;99.90;;;;;;5013113;28;20497;-64
2024/03/15 02:28:00;;;;;;;18.93;13.93;;;9.40;99.90;;;;;;5013216;28;20407;-63
2024/03/15 02:30:28;;;;;;;22.60;15.40;;;9.40;99.90;;;;;;5012845;28;20913;-62
2024/03/15 02:32:54;;;;;;;22.27;15.93;;;9.40;99.90;;;;;;5012884;28;20506;-62
2024/03/15 02:35:20;;;;;;;17.33;14.33;;;9.40;99.90;;;;;;5012877;28;20501;-62
2024/03/15 02:37:46;;;;;;;20.33;14.10;;;9.40;99.90;;;;;;5012736;28;20456;-63
2024/03/15 02:40:13;;;;;;;19.40;14.83;;;9.40;99.90;;;;;;5012318;28;20416;-63
2024/03/15 02:42:40;;;;;;;22.17;14.63;;;9.30;99.90;;;;;;5010655;28;20425;-62
2024/03/15 02:45:07;;;;;;;17.80;15.23;;;9.30;99.90;;;;;;5009873;28;20454;-62
2024/03/15 02:47:33;;;;;;;20.13;14.70;;;9.50;99.90;;;;;;5010529;28;20427;-62
2024/03/15 02:49:59;;;;;;;21.07;15.37;;;9.50;99.90;;;;;;5010712;28;20441;-63
2024/03/15 02:52:25;;;;;;;21.50;15.93;;;9.40;99.90;;;;;;5010788;28;20307;-63
2024/03/15 02:54:51;;;;;;;17.10;14.53;;;9.40;99.90;;;;;;5009957;28;20504;-63
2024/03/15 02:57:16;;;;;;;19.30;15.30;;;9.40;99.90;;;;;;5009898;28;20429;-63
2024/03/15 02:59:45;;;;;;;18.60;14.73;;;9.40;99.90;;;;;;5010644;28;20584;-63
2024/03/15 03:02:17;;;;;;;16.50;14.10;;;9.30;99.90;;;;;;5010605;28;20534;-62
2024/03/15 03:04:46;;;;;;;19.67;14.47;;;9.30;99.90;;;;;;5010645;28;20828;-63
2024/03/15 03:07:12;;;;;;;19.17;13.93;;;9.30;99.90;;;;;;5010569;28;20496;-63
2024/03/15 03:09:40;;;;;;;20.10;14.57;;;9.40;99.90;;;;;;5010446;28;20419;-62
2024/03/15 03:12:13;;;;;;;19.40;14.43;;;9.40;99.90;;;;;;5010613;28;20605;-63
2024/03/15 03:14:40;;;;;;;19.57;15.10;;;9.40;99.90;;;;;;5011071;28;20470;-62
2024/03/15 03:17:10;;;;;;;19.20;14.50;;;9.40;99.90;;;;;;5010958;28;20415;-63
2024/03/15 03:19:36;;;;;;;23.37;15.47;;;9.40;99.90;;;;;;5010557;28;20468;-63
2024/03/15 03:22:06;;;;;;;19.70;14.83;;;9.30;99.90;;;;;;5010556;28;20435;-64
2024/03/15 03:24:34;;;;;;;21.67;16.20;;;9.20;99.90;;;;;;5010535;28;20283;-63
2024/03/15 03:27:00;;;;;;;23.20;15.40;;;9.20;99.90;;;;;;5007808;28;20433;-63
2024/03/15 03:29:26;;;;;;;20.20;15.33;;;9.30;99.90;;;;;;5010631;28;20896;-63
2024/03/15 03:31:52;;;;;;;23.27;16.90;;;9.20;99.90;;;;;;4994053;28;20541;-62
2024/03/15 03:34:18;;;;;;;18.43;15.07;;;9.30;99.90;;;;;;5009469;28;20810;-62
2024/03/15 03:36:47;;;;;;;18.17;14.87;;;9.30;99.90;;;;;;5009636;28;20554;-62
2024/03/15 03:39:13;;;;;;;24.00;14.57;;;9.30;99.90;;;;;;5009897;28;20739;-65
2024/03/15 03:41:39;;;;;;;21.33;17.47;;;9.20;99.90;;;;;;5010705;28;20522;-62
2024/03/15 03:44:07;;;;;;;21.50;15.90;;;9.20;99.90;;;;;;5010954;28;20597;-61
2024/03/15 03:46:33;;;;;;;20.17;15.17;;;9.20;99.90;;;;;;5011875;28;20940;-65
2024/03/15 03:48:59;;;;;;;20.60;16.90;;;9.20;99.90;;;;;;5010387;28;20505;-65
2024/03/15 03:51:25;;;;;;;22.83;16.63;;;9.20;99.90;;;;;;5010755;28;20910;-64
2024/03/15 03:53:50;;;;;;;24.13;16.00;;;9.20;99.90;;;;;;5010092;28;20202;-65
2024/03/15 03:56:16;;;;;;;21.63;16.70;;;9.20;99.90;;;;;;5010333;28;20278;-66
2024/03/15 03:58:44;;;;;;;25.60;16.70;;;9.20;99.90;;;;;;5010148;28;20263;-65
2024/03/15 04:01:09;;;;;;;22.93;16.57;;;9.20;99.90;;;;;;5010255;28;20180;-65
2024/03/15 04:03:35;;;;;;;20.07;15.57;;;9.20;99.90;;;;;;5010063;28;20454;-66
2024/03/15 04:06:01;;;;;;;22.03;16.13;;;9.20;99.90;;;;;;5009974;28;20171;-65
2024/03/15 04:08:26;;;;;;;23.60;16.33;;;9.30;99.90;;;;;;5010153;28;20236;-65
2024/03/15 04:10:52;;;;;;;23.13;15.90;;;9.30;99.90;;;;;;5009804;28;20656;-65
2024/03/15 04:13:19;;;;;;;22.03;17.83;;;9.30;99.90;;;;;;5010108;28;20343;-64
2024/03/15 04:15:46;;;;;;;23.40;16.17;;;9.20;99.90;;;;;;5009915;28;20395;-66
2024/03/15 04:18:13;;;;;;;18.90;15.50;;;9.20;99.90;;;;;;5010187;28;20456;-65
2024/03/15 04:20:39;;;;;;;21.53;16.90;;;9.20;99.90;;;;;;5010062;28;20414;-65
2024/03/15 04:23:04;;;;;;;22.80;16.30;;;9.20;99.90;;;;;;5010024;28;20924;-65
2024/03/15 04:25:30;;;;;;;25.27;16.60;;;9.10;99.90;;;;;;5008689;28;20705;-65
2024/03/15 04:27:56;;;;;;;24.50;17.63;;;9.10;99.90;;;;;;5008508;28;20230;-65
2024/03/15 04:30:24;;;;;;;20.00;16.53;;;9.20;99.90;;;;;;5004185;28;20588;-63
2024/03/15 04:32:50;;;;;;;22.53;16.13;;;9.10;99.90;;;;;;5009330;28;20564;-65
2024/03/15 04:35:16;;;;;;;22.00;15.93;;;9.10;99.90;;;;;;5009311;28;20458;-65
2024/03/15 04:37:42;;;;;;;28.90;16.83;;;9.20;99.90;;;;;;5009921;28;20616;-63
2024/03/15 04:40:10;;;;;;;23.00;16.90;;;9.10;99.90;;;;;;5009857;28;20224;-64
2024/03/15 04:42:36;;;;;;;24.30;17.27;;;9.00;99.90;;;;;;4999951;28;20442;-65
2024/03/15 04:45:04;;;;;;;23.90;16.13;;;9.00;99.90;;;;;;5037941;22;21028;-59
2024/03/15 04:47:30;;;;;;;24.80;17.87;;;9.00;99.90;;;;;;5030410;28;20510;-60
2024/03/15 04:49:56;;;;;;;26.73;16.40;;;9.00;99.90;;;;;;5031297;28;20502;-57
2024/03/15 04:52:22;;;;;;;26.77;17.37;;;9.00;99.90;;;;;;5031150;28;20215;-58
2024/03/15 04:54:49;;;;;;;25.43;17.10;;;9.00;99.90;;;;;;5031219;28;20626;-58
2024/03/15 04:57:17;;;;;;;24.73;17.70;;;9.00;99.90;;;;;;5023198;28;20484;-58
2024/03/15 04:59:44;;;;;;;25.50;17.37;;;8.90;99.90;;;;;;5031207;28;20786;-58
2024/03/15 05:02:10;;;;;;;22.80;16.10;;;9.00;99.90;;;;;;5019253;28;20426;-58
2024/03/15 05:04:35;;;;;;;30.23;17.60;;;8.90;99.90;;;;;;5029749;28;20446;-58
2024/03/15 05:07:02;;;;;;;27.87;17.80;;;8.90;99.90;;;;;;5023281;28;20291;-58
2024/03/15 05:09:28;;;;;;;26.03;17.90;;;8.90;99.90;;;;;;5031568;28;20212;-58
2024/03/15 05:11:54;;;;;;;26.77;18.47;;;8.80;99.90;;;;;;5029631;28;20486;-57
2024/03/15 05:14:20;;;;;;;30.97;19.73;;;8.80;99.90;;;;;;5013455;28;20999;-57
2024/03/15 05:16:55;;;;;;;30.80;18.50;;;8.80;99.90;;;;;;5023193;28;20191;-58
2024/03/15 05:19:21;;;;;;;27.73;19.03;;;8.80;99.90;;;;;;5022784;28;20211;-58
2024/03/15 05:21:47;;;;;;;24.47;18.00;;;8.70;99.90;;;;;;5020896;28;20461;-59
2024/03/15 05:24:13;;;;;;;23.90;18.60;;;8.80;99.90;;;;;;5031115;28;20440;-57
2024/03/15 05:26:38;;;;;;;31.00;18.30;;;8.80;99.90;;;;;;5029656;28;20195;-58
2024/03/15 05:29:04;;;;;;;27.23;18.90;;;8.80;99.90;;;;;;5023273;28;20233;-59
2024/03/15 05:31:30;;;;;;;29.60;17.70;;;8.80;99.90;;;;;;5020762;28;20214;-59
2024/03/15 05:33:58;;;;;;;27.03;18.40;;;8.70;99.90;;;;;;5027205;28;20450;-58
2024/03/15 05:36:25;;;;;;;26.53;18.63;;;8.70;99.90;;;;;;5031235;28;20790;-58
2024/03/15 05:38:51;;;;;;;26.30;18.10;;;8.70;99.90;;;;;;5016086;28;20420;-60
2024/03/15 05:41:16;;;;;;;27.13;19.40;;;8.70;99.90;;;;;;5024089;28;20428;-59
2024/03/15 05:43:42;;;;;;;27.53;18.33;;;8.70;99.90;;;;;;5022262;28;20208;-59
2024/03/15 05:46:11;;;;;;;27.93;18.53;;;8.60;99.90;;;;;;5024491;28;20183;-59
2024/03/15 05:48:40;;;;;;;38.23;17.90;;;8.60;99.90;;;;;;5030977;28;20183;-59
2024/03/15 05:51:06;;;;;;;29.53;18.53;;;8.70;99.90;;;;;;5024163;28;20554;-59
2024/03/15 05:53:32;;;;;;;25.13;18.53;;;8.70;99.90;;;;;;5024912;28;20427;-58
2024/03/15 05:55:58;;;;;;;27.13;19.30;;;8.70;99.90;;;;;;5018649;28;20520;-59
2024/03/15 05:58:23;;;;;;;26.50;17.50;;;8.70;99.90;;;;;;5023133;28;20518;-59
2024/03/15 06:00:49;;;;;;;25.50;17.53;;;8.70;99.90;;;;;;5017500;28;20237;-60
2024/03/15 06:03:16;;;;;;;24.83;17.13;;;8.80;99.90;;;;;;5026077;28;20262;-59
2024/03/15 06:05:42;;;;;;;26.70;18.40;;;8.80;99.90;;;;;;5018677;28;20251;-58
2024/03/15 06:08:10;;;;;;;25.80;16.90;;;8.80;99.90;;;;;;5022998;28;20450;-59
2024/03/15 06:10:36;;;;;;;31.90;18.53;;;8.90;99.90;;;;;;5015723;28;20479;-58
2024/03/15 06:13:02;;;;;;;20.60;16.30;;;8.90;99.90;;;;;;5014271;28;20926;-59
2024/03/15 06:15:28;;;;;;;24.70;17.33;;;9.00;99.90;;;;;;5027370;28;20450;-59
2024/03/15 06:17:53;;;;;;;24.93;16.03;;;9.00;99.90;;;;;;5033872;28;20429;-59
2024/03/15 06:20:19;;;;;;;21.93;16.87;;;9.10;99.90;;;;;;5025375;28;20195;-60
2024/03/15 06:22:45;;;;;;;24.83;16.27;;;9.10;99.90;;;;;;5030650;28;20197;-60
2024/03/15 06:25:11;;;;;;;22.03;16.37;;;9.20;99.90;;;;;;5033826;28;20203;-60
2024/03/15 06:27:39;;;;;;;21.57;16.20;;;9.40;99.90;;;;;;5033937;28;20717;-60
2024/03/15 06:30:07;;;;;;;25.60;16.67;;;9.70;99.90;;;;;;5025263;28;20427;-61
2024/03/15 06:32:36;;;;;;;21.83;14.67;;;10.30;99.90;;;;;;5024571;28;20454;-60
2024/03/15 06:35:18;;;;;;;22.57;16.00;;;10.40;99.90;;;;;;5016316;28;20430;-59
2024/03/15 06:37:53;;;;;;;19.33;14.00;;;10.50;99.90;;;;;;5024559;28;20506;-59
2024/03/15 06:40:20;;;;;;;16.10;12.40;;;10.70;99.90;;;;;;5020575;28;20794;-60
2024/03/15 06:43:09;;;;;;;23.37;13.67;;;10.90;99.90;;;;;;5017458;28;20508;-60
2024/03/15 06:45:52;;;;;;;20.03;13.37;;;11.00;99.90;;;;;;5025222;28;20814;-59
2024/03/15 06:48:22;;;;;;;21.10;13.57;;;11.10;99.90;;;;;;5016343;28;20410;-60
2024/03/15 06:50:50;;;;;;;18.47;12.73;;;11.30;99.90;;;;;;5024347;28;20454;-60
2024/03/15 06:53:18;;;;;;;16.10;13.87;;;11.50;99.90;;;;;;5026810;28;20783;-60
2024/03/15 06:55:44;;;;;;;18.10;11.83;;;11.50;99.90;;;;;;5033415;28;20441;-60
2024/03/15 06:58:11;;;;;;;15.80;12.07;;;11.70;99.90;;;;;;5033084;28;20413;-60
2024/03/15 07:00:36;;;;;;;17.63;13.77;;;11.90;99.90;;;;;;5025951;28;20454;-60
2024/03/15 07:03:04;;;;;;;15.33;12.60;;;12.00;99.90;;;;;;5031749;28;20511;-59
2024/03/15 07:05:31;;;;;;;14.90;12.20;;;12.10;99.90;;;;;;5024659;28;20200;-60
2024/03/15 07:07:56;;;;;;;18.00;13.20;;;11.90;99.90;;;;;;5026818;28;20417;-60
2024/03/15 07:10:22;;;;;;;18.23;11.93;;;11.80;99.90;;;;;;5022143;28;20431;-60
2024/03/15 07:12:49;;;;;;;15.40;11.67;;;12.00;99.90;;;;;;5018220;28;20223;-60
2024/03/15 07:15:15;;;;;;;15.37;10.63;;;12.00;99.90;;;;;;5013207;28;20577;-60
2024/03/15 07:17:43;;;;;;;17.00;12.63;;;12.30;99.90;;;;;;5020439;28;20425;-60
2024/03/15 07:20:13;;;;;;;13.53;11.87;;;12.30;99.90;;;;;;5020123;28;20954;-59
2024/03/15 07:22:42;;;;;;;14.73;10.70;;;12.50;99.90;;;;;;5009534;28;20514;-59
2024/03/15 07:25:10;;;;;;;18.23;12.03;;;12.40;99.90;;;;;;5023918;28;20487;-60
2024/03/15 07:27:41;;;;;;;15.57;11.47;;;12.60;99.90;;;;;;5026610;28;20421;-59
2024/03/15 07:30:11;;;;;;;15.13;10.40;;;12.70;99.90;;;;;;5024257;28;20783;-59
2024/03/15 07:32:37;;;;;;;17.13;12.90;;;13.00;99.90;;;;;;5019317;28;20492;-60
2024/03/15 07:35:04;;;;;;;13.40;10.53;;;12.90;99.90;;;;;;5030873;28;21002;-60
2024/03/15 07:37:31;;;;;;;17.07;10.90;;;12.60;99.90;;;;;;5027104;28;20439;-60
2024/03/15 07:39:56;;;;;;;12.80;10.30;;;13.10;99.90;;;;;;5032436;28;20417;-60
2024/03/15 07:42:22;;;;;;;13.73;11.83;;;13.30;99.90;;;;;;5020556;28;20445;-63
2024/03/15 07:44:48;;;;;;;13.00;10.40;;;13.50;99.90;;;;;;5027501;28;20212;-65
2024/03/15 07:47:15;;;;;;;14.47;10.63;;;13.40;99.90;;;;;;5019405;28;20267;-67
2024/03/15 07:49:41;;;;;;;10.73;9.57;;;12.90;99.90;;;;;;5032640;28;20509;-65
2024/03/15 07:52:07;;;;;;;14.77;12.37;;;13.30;99.90;;;;;;5007680;28;20891;-59
2024/03/15 07:54:33;;;;;;;10.47;9.33;;;13.30;99.90;;;;;;5018224;28;20220;-60
2024/03/15 07:56:59;;;;;;;14.53;10.63;;;13.20;99.90;;;;;;5030516;28;20459;-60
2024/03/15 07:59:24;;;;;;;13.90;9.90;;;13.50;99.90;;;;;;5032481;28;20213;-60
2024/03/15 08:01:50;;;;;;;13.60;10.90;;;13.90;99.90;;;;;;5025166;28;20240;-59
2024/03/15 08:04:16;;;;;;;12.20;10.33;;;14.10;99.90;;;;;;5011945;28;20201;-59
2024/03/15 08:06:41;;;;;;;12.30;9.90;;;14.20;99.90;;;;;;5029475;28;20182;-60
2024/03/15 08:09:07;;;;;;;14.80;11.47;;;13.90;99.90;;;;;;5027328;28;20597;-59
2024/03/15 08:11:33;;;;;;;13.30;10.17;;;14.00;99.90;;;;;;5027595;28;20207;-60
2024/03/15 08:14:02;;;;;;;15.30;10.90;;;14.00;99.90;;;;;;5022143;28;20293;-59
2024/03/15 08:16:33;;;;;;;14.03;10.50;;;14.20;99.90;;;;;;5012843;28;20904;-59
2024/03/15 08:19:10;;;;;;;12.53;10.60;;;14.20;99.90;;;;;;5019618;28;20425;-59
2024/03/15 08:21:39;;;;;;;11.80;10.60;;;14.00;99.90;;;;;;5031956;28;20954;-60
2024/03/15 08:24:05;;;;;;;15.00;10.50;;;14.30;99.90;;;;;;5021503;28;20451;-61
2024/03/15 08:26:34;;;;;;;17.67;11.47;;;14.50;99.90;;;;;;5030021;28;20428;-60
2024/03/15 08:29:00;;;;;;;14.53;10.50;;;14.20;99.90;;;;;;5021020;28;20452;-61
2024/03/15 08:31:26;;;;;;;12.27;10.50;;;14.80;99.90;;;;;;5011232;28;20500;-59
2024/03/15 08:33:52;;;;;;;12.43;9.50;;;15.10;99.90;;;;;;5025106;28;20489;-56
2024/03/15 08:36:18;;;;;;;13.80;9.47;;;15.50;99.90;;;;;;5030349;28;20939;-59
2024/03/15 08:38:43;;;;;;;12.60;9.97;;;15.20;99.90;;;;;;5026944;28;20182;-59
2024/03/15 08:41:10;;;;;;;10.23;8.40;;;15.60;99.90;;;;;;5031256;28;20179;-59
2024/03/15 08:43:36;;;;;;;13.53;11.27;;;15.50;99.90;;;;;;5023165;28;20223;-61
2024/03/15 08:46:02;;;;;;;10.63;9.10;;;15.00;99.90;;;;;;5009435;28;20455;-59
2024/03/15 08:48:30;;;;;;;13.07;9.77;;;15.60;99.90;;;;;;5022433;28;20189;-59
2024/03/15 08:50:56;;;;;;;11.30;9.93;;;15.40;99.90;;;;;;5025837;28;20209;-62
2024/03/15 08:53:24;;;;;;;16.60;9.90;;;15.40;99.90;;;;;;5022110;28;20410;-59
2024/03/15 08:55:53;;;;;;;12.40;9.13;;;15.40;99.90;;;;;;5023516;28;20966;-61
2024/03/15 08:58:19;;;;;;;11.23;8.80;;;15.00;99.90;;;;;;5016536;28;20423;-61
2024/03/15 09:00:44;;;;;;;12.20;9.80;;;14.80;99.90;;;;;;5024065;28;20939;-62
2024/03/15 09:03:10;;;;;;;14.60;9.90;;;14.70;99.90;;;;;;5028070;28;20423;-62
2024/03/15 09:05:40;;;;;;;13.27;9.67;;;14.80;99.90;;;;;;5017186;28;20196;-63
2024/03/15 09:08:07;;;;;;;12.83;10.00;;;15.10;99.90;;;;;;5018520;28;20637;-59
2024/03/15 09:10:33;;;;;;;16.50;10.37;;;15.20;99.90;;;;;;5015788;28;20464;-59
2024/03/15 09:12:59;;;;;;;11.47;8.47;;;15.10;99.90;;;;;;5011109;28;20411;-59
2024/03/15 09:15:26;;;;;;;12.43;9.93;;;15.10;99.90;;;;;;5012329;28;20801;-59
2024/03/15 09:17:52;;;;;;;13.67;9.30;;;15.00;99.90;;;;;;5013527;28;20301;-59
2024/03/15 09:22:48;;;;;;;13.73;10.23;;;15.80;99.90;;;;;;5015270;28;20787;-60
2024/03/15 09:25:26;;;;;;;10.47;9.13;;;16.00;99.90;;;;;;5018866;28;20197;-60
2024/03/15 09:27:54;;;;;;;9.53;8.50;;;16.00;99.90;;;;;;5018854;28;20429;-59
2024/03/15 09:30:26;;;;;;;11.00;9.87;;;16.30;99.90;;;;;;5012150;28;20434;-58
2024/03/15 09:32:52;;;;;;;8.70;7.80;;;16.70;99.90;;;;;;5013651;28;20501;-59
2024/03/15 09:35:18;;;;;;;11.10;8.87;;;16.30;99.90;;;;;;5024369;28;20500;-59
2024/03/15 09:37:49;;;;;;;14.20;8.63;;;16.40;99.90;;;;;;5018632;28;20434;-59
2024/03/15 09:40:15;;;;;;;10.43;9.10;;;16.00;99.90;;;;;;5016534;28;20190;-58
2024/03/15 09:42:47;;;;;;;11.73;8.23;;;15.90;99.90;;;;;;5016206;28;20445;-58
2024/03/15 09:45:16;;;;;;;8.80;8.00;;;16.00;99.90;;;;;;5018757;28;20496;-58
2024/03/15 09:47:44;;;;;;;11.50;8.73;;;16.00;99.90;;;;;;5019087;28;20420;-57
2024/03/15 09:50:16;;;;;;;11.80;7.57;;;16.00;99.90;;;;;;5022105;28;20428;-58
2024/03/15 09:52:42;;;;;;;90.53;56.10;;;16.30;99.90;;;;;;5021516;28;21168;-57
2024/03/15 09:55:13;;;;;;;45.50;31.60;;;16.30;99.90;;;;;;5018309;28;20450;-57
2024/03/15 09:57:43;;;;;;;10.60;7.90;;;16.50;99.90;;;;;;5015607;28;20437;-58
2024/03/15 10:00:14;;;;;;;11.07;9.63;;;16.40;99.90;;;;;;5018053;28;20935;-58
2024/03/15 10:02:41;;;;;;;9.03;7.57;;;16.40;99.90;;;;;;5015096;28;20878;-58
2024/03/15 10:05:10;;;;;;;8.50;7.60;;;16.30;99.90;;;;;;5020118;28;20477;-59
2024/03/15 10:07:36;;;;;;;12.00;9.53;;;16.10;99.90;;;;;;5004554;28;20433;-61
2024/03/15 10:10:05;;;;;;;9.97;8.87;;;16.20;99.90;;;;;;5021423;28;20429;-58
2024/03/15 10:12:33;;;;;;;9.60;7.53;;;16.40;99.90;;;;;;5014927;28;20469;-59
2024/03/15 10:14:59;;;;;;;10.40;6.93;;;16.40;99.90;;;;;;5015626;28;20445;-58
2024/03/15 10:17:25;;;;;;;9.83;7.40;;;16.70;99.90;;;;;;5018536;28;20435;-60
2024/03/15 10:19:50;;;;;;;13.17;8.27;;;16.70;99.90;;;;;;5018215;28;20786;-59
2024/03/15 10:22:16;;;;;;;8.67;7.50;;;16.90;99.90;;;;;;5021652;28;20274;-58
2024/03/15 10:24:41;;;;;;;10.40;8.30;;;17.00;99.90;;;;;;5021317;28;20205;-58
2024/03/15 10:27:14;;;;;;;10.63;7.90;;;17.10;99.90;;;;;;5017856;28;20212;-59
2024/03/15 10:29:40;;;;;;;9.20;7.27;;;17.10;99.90;;;;;;5015395;28;20603;-60
2024/03/15 10:32:10;;;;;;;12.60;8.83;;;17.00;99.90;;;;;;5016993;28;20491;-60
2024/03/15 10:34:40;;;;;;;10.60;8.30;;;16.90;99.90;;;;;;5017724;28;20441;-61
2024/03/15 10:37:11;;;;;;;10.23;9.17;;;16.80;99.90;;;;;;5019461;28;20428;-58
2024/03/15 10:39:36;;;;;;;10.57;8.87;;;16.50;99.90;;;;;;5021781;28;20430;-60
2024/03/15 10:42:04;;;;;;;11.43;8.93;;;16.40;99.90;;;;;;5021053;28;20518;-60
2024/03/15 10:44:32;;;;;;;10.40;8.63;;;16.20;99.90;;;;;;5014007;28;20697;-59
2024/03/15 10:46:58;;;;;;;11.10;8.20;;;16.40;99.90;;;;;;5015191;28;20585;-58
2024/03/15 10:49:25;;;;;;;10.40;8.00;;;16.50;99.90;;;;;;5018047;28;20444;-60
2024/03/15 10:51:52;;;;;;;12.07;8.73;;;16.60;99.90;;;;;;5018069;28;20480;-59
2024/03/15 10:54:19;;;;;;;11.40;8.90;;;16.30;99.90;;;;;;5020951;28;20442;-59
2024/03/15 10:56:47;;;;;;;8.90;8.00;;;16.50;99.90;;;;;;5021073;28;20809;-60
2024/03/15 10:59:12;;;;;;;10.23;8.00;;;16.50;99.90;;;;;;5014406;28;20426;-59
2024/03/15 11:01:40;;;;;;;11.40;8.37;;;16.70;99.90;;;;;;5014818;28;20449;-59
2024/03/15 11:04:12;;;;;;;11.90;8.97;;;16.70;99.90;;;;;;5013330;28;20211;-59
2024/03/15 11:06:45;;;;;;;10.70;9.00;;;16.50;99.90;;;;;;5017026;28;20450;-60
2024/03/15 11:09:20;;;;;;;15.43;8.90;;;16.50;99.90;;;;;;5018904;28;20466;-60
2024/03/15 11:12:03;;;;;;;11.20;8.90;;;16.50;99.90;;;;;;5017747;28;20877;-60
2024/03/15 11:14:35;;;;;;;11.00;8.60;;;16.70;99.90;;;;;;5009360;28;20431;-60
2024/03/15 11:17:05;;;;;;;10.53;7.60;;;16.70;99.90;;;;;;5013911;28;20971;-59
2024/03/15 11:19:43;;;;;;;10.87;8.17;;;16.80;99.90;;;;;;5014736;28;20871;-60
2024/03/15 11:22:22;;;;;;;10.17;8.20;;;17.00;99.90;;;;;;5014771;28;21079;-60
2024/03/15 11:24:50;;;;;;;10.00;8.30;;;17.10;99.90;;;;;;5014260;28;20446;-58
2024/03/15 11:27:16;;;;;;;9.80;8.07;;;17.20;99.90;;;;;;5017327;28;20799;-58
2024/03/15 11:29:46;;;;;;;9.03;7.80;;;17.10;99.90;;;;;;5018173;28;20439;-59
2024/03/15 11:32:12;;;;;;;9.30;6.87;;;17.10;99.90;;;;;;5013233;28;20458;-59
2024/03/15 11:34:44;;;;;;;8.00;7.20;;;17.30;99.90;;;;;;5014388;28;20444;-60
2024/03/15 11:37:13;;;;;;;9.67;7.50;;;17.50;99.90;;;;;;5016371;28;20418;-60
2024/03/15 11:39:39;;;;;;;8.50;7.70;;;17.60;99.90;;;;;;5017439;28;20427;-59
2024/03/15 11:42:06;;;;;;;9.90;7.10;;;17.60;99.90;;;;;;5017942;28;20439;-61
2024/03/15 11:44:32;;;;;;;8.97;7.60;;;17.70;99.90;;;;;;5021977;28;20230;-60
2024/03/15 11:46:58;;;;;;;9.90;8.33;;;17.60;99.90;;;;;;5008339;28;20433;-60
2024/03/15 11:49:24;;;;;;;8.87;7.90;;;17.50;99.90;;;;;;5014162;28;20218;-59
2024/03/15 11:51:59;;;;;;;9.90;7.47;;;17.50;99.90;;;;;;5014600;28;20464;-58
2024/03/15 11:54:27;;;;;;;10.70;7.60;;;17.70;99.90;;;;;;5017679;28;20440;-59
2024/03/15 11:56:59;;;;;;;17.73;8.10;;;17.80;99.90;;;;;;5016850;28;20460;-59
2024/03/15 11:59:28;;;;;;;8.83;7.93;;;17.90;99.90;;;;;;5020788;28;20456;-59
2024/03/15 12:01:54;;;;;;;9.73;8.03;;;17.90;99.90;;;;;;5016231;28;20429;-59
2024/03/15 12:04:24;;;;;;;7.60;6.90;;;17.90;99.90;;;;;;5012631;28;20445;-59
2024/03/15 12:06:50;;;;;;;11.20;7.30;;;17.80;99.90;;;;;;5014192;28;20491;-58
2024/03/15 12:09:16;;;;;;;9.73;7.37;;;17.70;99.90;;;;;;5016314;28;20454;-59
2024/03/15 12:11:45;;;;;;;9.13;7.13;;;18.00;99.90;;;;;;4997840;28;20204;-57
2024/03/15 12:14:12;;;;;;;8.37;7.03;;;18.10;99.90;;;;;;5017795;28;20447;-59
2024/03/15 12:16:42;;;;;;;7.87;6.53;;;18.00;99.90;;;;;;5014791;28;20913;-59
2024/03/15 12:19:11;;;;;;;10.83;6.40;;;18.10;99.90;;;;;;5004277;28;20950;-59
2024/03/15 12:21:40;;;;;;;8.87;6.73;;;18.20;99.90;;;;;;5010894;28;20430;-59
2024/03/15 12:24:09;;;;;;;7.37;6.40;;;18.30;99.90;;;;;;5025479;28;20477;-58
2024/03/15 12:26:35;;;;;;;9.67;7.73;;;18.40;99.90;;;;;;5023761;28;20525;-58
2024/03/15 12:29:00;;;;;;;9.03;7.20;;;18.50;99.90;;;;;;5017407;28;21193;-59
2024/03/15 12:31:26;;;;;;;8.80;6.93;;;18.40;99.90;;;;;;5001926;28;20471;-60
2024/03/15 12:33:52;;;;;;;8.17;6.60;;;18.40;99.90;;;;;;5027196;28;20202;-60
2024/03/15 12:36:18;;;;;;;10.03;6.10;;;18.60;99.90;;;;;;5031628;28;20477;-59
2024/03/15 12:38:44;;;;;;;7.60;6.53;;;18.60;99.90;;;;;;5031491;28;20181;-59